createdAt,value
2018-12-10T00:01:14.695Z,0.80
2018-12-10T00:03:42.451Z,0.60
2018-12-10T00:06:09.882Z,1.20
2018-12-10T00:08:37.363Z,1.10
2018-12-10T00:11:05.171Z,1.03
2018-12-10T00:13:32.634Z,0.97
2018-12-10T00:16:00.334Z,1.00
2018-12-10T00:18:27.818Z,0.93
2018-12-10T00:20:55.250Z,1.10
2018-12-10T00:23:22.775Z,0.93
2018-12-10T00:25:50.275Z,1.03
2018-12-10T00:28:17.741Z,0.70
2018-12-10T00:30:45.189Z,0.83
2018-12-10T00:33:12.675Z,1.17
2018-12-10T00:35:40.139Z,1.10
2018-12-10T00:38:07.635Z,1.00
2018-12-10T00:40:35.091Z,1.10
2018-12-10T00:43:02.571Z,1.40
2018-12-10T00:45:30.239Z,1.10
2018-12-10T00:47:57.746Z,1.10
2018-12-10T00:50:25.210Z,1.40
2018-12-10T00:52:52.648Z,1.10
2018-12-10T00:55:20.131Z,1.57
2018-12-10T00:57:47.586Z,0.97
2018-12-10T01:00:15.073Z,1.10
2018-12-10T01:02:42.688Z,0.90
2018-12-10T01:05:10.141Z,1.03
2018-12-10T01:07:37.628Z,1.10
2018-12-10T01:10:05.576Z,0.70
2018-12-10T01:12:33.055Z,0.90
2018-12-10T01:15:00.512Z,1.10
2018-12-10T01:17:28.004Z,1.17
2018-12-10T01:19:55.675Z,1.03
2018-12-10T01:22:23.307Z,1.30
2018-12-10T01:24:50.897Z,1.30
2018-12-10T01:27:18.617Z,1.03
2018-12-10T01:29:46.134Z,1.10
2018-12-10T01:32:13.589Z,1.20
2018-12-10T01:34:41.036Z,1.00
2018-12-10T01:37:08.531Z,1.40
2018-12-10T01:39:36.011Z,0.90
2018-12-10T01:42:03.730Z,1.27
2018-12-10T01:44:31.350Z,1.00
2018-12-10T01:46:58.997Z,0.93
2018-12-10T01:49:26.435Z,0.80
2018-12-10T01:51:53.930Z,1.20
2018-12-10T01:54:21.425Z,1.10
2018-12-10T01:56:48.902Z,1.00
2018-12-10T01:59:16.365Z,1.00
2018-12-10T02:01:43.867Z,0.63
2018-12-10T02:04:11.360Z,0.80
2018-12-10T02:06:38.831Z,0.97
2018-12-10T02:09:06.596Z,0.90
2018-12-10T02:11:34.188Z,0.90
2018-12-10T02:14:01.756Z,0.90
2018-12-10T02:16:29.251Z,0.70
2018-12-10T02:18:59.794Z,0.60
2018-12-10T02:21:27.243Z,0.97
2018-12-10T02:23:54.929Z,0.93
2018-12-10T02:26:22.410Z,0.90
2018-12-10T02:28:55.635Z,0.80
2018-12-10T02:31:23.202Z,0.70
2018-12-10T02:33:51.100Z,1.07
2018-12-10T02:36:18.603Z,1.00
2018-12-10T02:38:46.061Z,0.90
2018-12-10T02:41:13.648Z,0.83
2018-12-10T02:43:41.090Z,0.80
2018-12-10T02:46:08.604Z,0.80
2018-12-10T02:48:36.089Z,1.00
2018-12-10T02:51:03.536Z,1.13
2018-12-10T02:53:30.994Z,0.80
2018-12-10T02:55:58.556Z,0.80
2018-12-10T02:58:26.846Z,0.90
2018-12-10T03:00:54.295Z,0.87
2018-12-10T03:03:21.803Z,1.07
2018-12-10T03:05:49.231Z,1.10
2018-12-10T03:08:16.998Z,0.93
2018-12-10T03:10:44.448Z,0.87
2018-12-10T03:13:12.249Z,0.67
2018-12-10T03:15:39.712Z,0.77
2018-12-10T03:18:07.176Z,0.90
2018-12-10T03:20:34.643Z,0.97
2018-12-10T03:23:02.080Z,0.97
2018-12-10T03:25:29.591Z,0.70
2018-12-10T03:27:57.168Z,1.00
2018-12-10T03:30:24.672Z,0.80
2018-12-10T03:32:52.296Z,0.90
2018-12-10T03:35:19.870Z,0.90
2018-12-10T03:37:47.306Z,1.00
2018-12-10T03:40:14.800Z,0.80
2018-12-10T03:42:42.263Z,1.07
2018-12-10T03:45:09.871Z,0.90
2018-12-10T03:47:37.319Z,1.10
2018-12-10T03:50:05.945Z,1.00
2018-12-10T03:52:33.417Z,1.10
2018-12-10T03:55:01.014Z,0.70
2018-12-10T03:57:28.532Z,0.87
2018-12-10T03:59:56.016Z,0.70
2018-12-10T04:02:23.608Z,0.73
2018-12-10T04:04:51.116Z,1.10
2018-12-10T04:07:18.581Z,0.80
2018-12-10T04:09:46.039Z,0.60
2018-12-10T04:12:13.556Z,1.07
2018-12-10T04:14:41.015Z,0.90
2018-12-10T04:17:08.463Z,0.90
2018-12-10T04:19:35.926Z,0.97
2018-12-10T04:22:03.419Z,0.80
2018-12-10T04:24:30.904Z,1.10
2018-12-10T04:26:58.508Z,1.00
2018-12-10T04:29:26.051Z,0.87
2018-12-10T04:31:53.492Z,1.20
2018-12-10T04:34:20.961Z,0.93
2018-12-10T04:36:48.487Z,0.80
2018-12-10T04:39:16.043Z,1.13
2018-12-10T04:41:43.532Z,0.80
2018-12-10T04:44:10.987Z,0.97
2018-12-10T04:46:38.450Z,1.20
2018-12-10T04:49:05.948Z,1.10
2018-12-10T04:51:33.408Z,0.90
2018-12-10T04:54:01.061Z,0.90
2018-12-10T04:56:28.538Z,1.23
2018-12-10T04:58:56.055Z,0.87
2018-12-10T05:01:23.495Z,1.00
2018-12-10T05:03:51.019Z,1.00
2018-12-10T05:06:18.508Z,1.20
2018-12-10T05:08:45.994Z,1.53
2018-12-10T05:11:13.455Z,1.30
2018-12-10T05:13:40.938Z,1.20
2018-12-10T05:16:09.263Z,0.80
2018-12-10T05:18:36.930Z,1.27
2018-12-10T05:21:04.448Z,0.97
2018-12-10T05:23:31.906Z,1.20
2018-12-10T05:25:59.360Z,1.10
2018-12-10T05:28:26.820Z,1.17
2018-12-10T05:30:54.319Z,0.90
2018-12-10T05:33:21.819Z,1.27
2018-12-10T05:35:49.280Z,1.20
2018-12-10T05:38:16.722Z,1.03
2018-12-10T05:40:44.210Z,1.23
2018-12-10T05:43:11.670Z,1.20
2018-12-10T05:45:39.141Z,0.93
2018-12-10T05:48:06.755Z,1.00
2018-12-10T05:50:34.228Z,1.30
2018-12-10T05:53:01.739Z,0.90
2018-12-10T05:55:29.202Z,1.10
2018-12-10T05:57:56.683Z,1.00
2018-12-10T06:00:24.150Z,1.10
2018-12-10T06:02:51.590Z,1.37
2018-12-10T06:05:19.100Z,1.37
2018-12-10T06:07:46.661Z,0.83
2018-12-10T06:10:14.127Z,1.10
2018-12-10T06:12:41.658Z,1.17
2018-12-10T06:15:09.217Z,1.73
2018-12-10T06:17:36.670Z,1.90
2018-12-10T06:20:04.452Z,2.40
2018-12-10T06:22:31.935Z,1.93
2018-12-10T06:24:59.448Z,1.97
2018-12-10T06:27:26.866Z,1.50
2018-12-10T06:29:54.328Z,1.20
2018-12-10T06:32:21.797Z,1.00
2018-12-10T06:34:49.290Z,1.10
2018-12-10T06:37:16.731Z,1.50
2018-12-10T06:39:44.281Z,1.20
2018-12-10T06:42:11.738Z,1.17
2018-12-10T06:44:39.192Z,1.03
2018-12-10T06:47:06.713Z,0.80
2018-12-10T06:49:34.162Z,1.10
2018-12-10T06:52:01.614Z,1.00
2018-12-10T06:54:29.080Z,1.10
2018-12-10T06:56:56.567Z,1.20
2018-12-10T06:59:24.031Z,1.03
2018-12-10T07:01:51.514Z,0.97
2018-12-10T07:04:18.998Z,1.50
2018-12-10T07:06:46.518Z,0.90
2018-12-10T07:09:14.011Z,1.23
2018-12-10T07:11:41.478Z,1.30
2018-12-10T07:14:08.963Z,1.23
2018-12-10T07:16:36.399Z,1.10
2018-12-10T07:19:04.082Z,1.00
2018-12-10T07:21:31.558Z,0.90
2018-12-10T07:23:59.151Z,1.00
2018-12-10T07:26:26.611Z,1.20
2018-12-10T07:28:54.102Z,1.30
2018-12-10T07:31:21.543Z,1.20
2018-12-10T07:33:49.022Z,1.23
2018-12-10T07:36:16.487Z,1.17
2018-12-10T07:38:43.969Z,0.93
2018-12-10T07:41:11.538Z,1.07
2018-12-10T07:43:39.016Z,0.87
2018-12-10T07:46:06.560Z,1.00
2018-12-10T07:48:33.991Z,1.13
2018-12-10T07:51:01.438Z,1.10
2018-12-10T07:53:28.927Z,0.93
2018-12-10T07:55:56.416Z,1.13
2018-12-10T07:58:24.071Z,0.83
2018-12-10T08:00:51.582Z,1.07
2018-12-10T08:03:19.074Z,1.00
2018-12-10T08:05:46.566Z,0.97
2018-12-10T08:08:14.059Z,0.80
2018-12-10T08:10:41.499Z,1.07
2018-12-10T08:13:09.062Z,1.10
2018-12-10T08:15:36.538Z,0.90
2018-12-10T08:18:05.003Z,0.87
2018-12-10T08:20:32.483Z,1.00
2018-12-10T08:23:00.143Z,0.90
2018-12-10T08:25:27.715Z,0.57
2018-12-10T08:27:55.299Z,0.87
2018-12-10T08:30:22.779Z,1.37
2018-12-10T08:32:50.306Z,1.00
2018-12-10T08:35:17.909Z,1.20
2018-12-10T08:37:45.395Z,0.90
2018-12-10T08:40:13.085Z,1.40
2018-12-10T08:42:40.796Z,0.90
2018-12-10T08:45:08.434Z,1.03
2018-12-10T08:47:35.894Z,0.67
2018-12-10T08:50:10.326Z,0.90
2018-12-10T08:52:37.764Z,1.30
2018-12-10T08:55:05.503Z,0.87
2018-12-10T08:57:32.960Z,0.97
2018-12-10T09:00:00.422Z,1.17
2018-12-10T09:02:27.907Z,0.90
2018-12-10T09:04:55.365Z,1.20
2018-12-10T09:07:22.877Z,1.10
2018-12-10T09:09:50.318Z,1.03
2018-12-10T09:12:17.759Z,1.07
2018-12-10T09:14:45.262Z,0.80
2018-12-10T09:17:12.710Z,0.93
2018-12-10T09:19:40.151Z,0.90
2018-12-10T09:22:07.719Z,0.93
2018-12-10T09:24:35.146Z,1.30
2018-12-10T09:27:02.626Z,1.07
2018-12-10T09:29:30.166Z,0.67
2018-12-10T09:31:57.909Z,0.67
2018-12-10T09:34:25.569Z,1.20
2018-12-10T09:36:53.115Z,0.60
2018-12-10T09:39:20.571Z,0.97
2018-12-10T09:41:48.022Z,1.10
2018-12-10T09:44:15.491Z,0.90
2018-12-10T09:46:43.044Z,1.20
2018-12-10T09:49:10.556Z,0.90
2018-12-10T09:51:37.990Z,0.93
2018-12-10T09:54:05.559Z,1.30
2018-12-10T09:56:33.037Z,1.00
2018-12-10T09:59:00.610Z,1.03
2018-12-10T10:01:28.622Z,1.00
2018-12-10T10:03:56.089Z,1.10
2018-12-10T10:06:23.823Z,0.93
2018-12-10T10:08:51.245Z,1.00
2018-12-10T10:11:18.722Z,1.50
2018-12-10T10:13:46.174Z,1.10
2018-12-10T10:16:13.664Z,1.10
2018-12-10T10:18:41.141Z,1.40
2018-12-10T10:21:11.405Z,0.83
2018-12-10T10:23:38.067Z,0.73
2018-12-10T10:26:05.511Z,0.90
2018-12-10T10:28:33.162Z,0.90
2018-12-10T10:31:00.744Z,1.20
2018-12-10T10:33:32.311Z,1.23
2018-12-10T10:35:57.773Z,1.10
2018-12-10T10:38:25.407Z,1.10
2018-12-10T10:40:52.903Z,0.90
2018-12-10T10:43:20.340Z,0.93
2018-12-10T10:45:47.974Z,1.13
2018-12-10T10:48:15.434Z,1.30
2018-12-10T10:50:42.897Z,1.23
2018-12-10T10:53:10.390Z,1.10
2018-12-10T10:55:37.974Z,1.20
2018-12-10T10:58:05.567Z,1.07
2018-12-10T11:00:39.013Z,1.00
2018-12-10T11:03:12.614Z,1.00
2018-12-10T11:05:40.087Z,1.00
2018-12-10T11:08:07.716Z,0.97
2018-12-10T11:10:35.184Z,1.43
2018-12-10T11:13:02.682Z,1.00
2018-12-10T11:15:30.110Z,1.23
2018-12-10T11:17:57.598Z,1.30
2018-12-10T11:20:25.037Z,1.00
2018-12-10T11:22:52.508Z,0.97
2018-12-10T11:25:19.955Z,1.20
2018-12-10T11:27:47.466Z,1.30
2018-12-10T11:30:14.950Z,0.60
2018-12-10T11:32:42.397Z,0.60
2018-12-10T11:35:09.887Z,0.90
2018-12-10T11:37:37.364Z,1.10
2018-12-10T11:40:05.251Z,1.07
2018-12-10T11:42:32.919Z,0.80
2018-12-10T11:45:00.385Z,0.97
2018-12-10T11:47:28.104Z,1.13
2018-12-10T11:49:55.684Z,0.53
2018-12-10T11:52:23.439Z,0.47
2018-12-10T11:54:51.084Z,0.97
2018-12-10T11:57:18.688Z,1.03
2018-12-10T11:59:46.110Z,0.80
2018-12-10T12:02:13.886Z,1.30
2018-12-10T12:04:41.474Z,1.10
2018-12-10T12:07:09.057Z,0.80
2018-12-10T12:09:37.515Z,1.00
2018-12-10T12:12:05.190Z,1.00
2018-12-10T12:14:32.771Z,1.03
2018-12-10T12:17:00.214Z,1.10
2018-12-10T12:19:27.931Z,0.60
2018-12-10T12:21:55.524Z,0.53
2018-12-10T12:24:22.982Z,0.97
2018-12-10T12:26:50.463Z,0.40
2018-12-10T12:29:17.921Z,1.07
2018-12-10T12:31:45.438Z,0.97
2018-12-10T12:34:12.920Z,0.70
2018-12-10T12:36:40.366Z,0.90
2018-12-10T12:39:07.871Z,0.50
2018-12-10T12:41:35.347Z,0.70
2018-12-10T12:44:02.955Z,1.00
2018-12-10T12:46:30.519Z,0.90
2018-12-10T12:48:58.102Z,1.33
2018-12-10T12:51:25.556Z,0.60
2018-12-10T12:53:53.005Z,0.60
2018-12-10T12:56:20.495Z,1.00
2018-12-10T12:58:48.079Z,0.30
2018-12-10T13:01:15.687Z,0.80
2018-12-10T13:03:43.131Z,1.07
2018-12-10T13:06:10.618Z,0.70
2018-12-10T13:08:38.107Z,0.80
2018-12-10T13:11:05.775Z,0.43
2018-12-10T13:13:33.227Z,0.80
2018-12-10T13:16:00.695Z,0.67
2018-12-10T13:18:28.380Z,1.00
2018-12-10T13:20:55.814Z,1.00
2018-12-10T13:23:23.282Z,0.57
2018-12-10T13:25:50.756Z,0.47
2018-12-10T13:28:18.287Z,0.40
2018-12-10T13:30:45.747Z,0.80
2018-12-10T13:33:13.236Z,0.70
2018-12-10T13:35:40.741Z,0.40
2018-12-10T13:38:12.422Z,1.30
2018-12-10T13:40:37.839Z,0.40
2018-12-10T13:43:05.299Z,0.87
2018-12-10T13:45:32.765Z,0.73
2018-12-10T13:48:00.258Z,0.97
2018-12-10T13:50:27.719Z,0.87
2018-12-10T13:52:55.304Z,0.80
2018-12-10T13:55:22.755Z,0.70
2018-12-10T13:57:50.214Z,1.20
2018-12-10T14:00:17.707Z,0.77
2018-12-10T14:02:45.192Z,0.60
2018-12-10T14:05:14.214Z,0.60
2018-12-10T14:07:41.851Z,0.90
2018-12-10T14:10:09.468Z,0.70
2018-12-10T14:12:36.917Z,0.80
2018-12-10T14:15:06.466Z,0.33
2018-12-10T14:17:33.919Z,0.60
2018-12-10T14:20:01.450Z,0.57
2018-12-10T14:22:28.919Z,0.50
2018-12-10T14:24:56.515Z,0.23
2018-12-10T14:27:23.969Z,0.80
2018-12-10T14:29:51.997Z,0.90
2018-12-10T14:32:19.732Z,0.77
2018-12-10T14:34:47.223Z,0.83
2018-12-10T14:37:14.737Z,0.47
2018-12-10T14:39:42.198Z,0.53
2018-12-10T14:42:21.867Z,0.30
2018-12-10T14:44:49.485Z,0.40
2018-12-10T14:47:17.230Z,0.57
2018-12-10T14:49:44.811Z,0.77
2018-12-10T14:52:12.503Z,0.70
2018-12-10T14:54:39.968Z,0.43
2018-12-10T14:57:07.548Z,0.57
2018-12-10T14:59:35.127Z,0.43
2018-12-10T15:02:02.884Z,0.60
2018-12-10T15:04:30.344Z,0.53
2018-12-10T15:06:57.823Z,0.50
2018-12-10T15:09:25.354Z,0.20
2018-12-10T15:11:52.843Z,0.50
2018-12-10T15:14:20.298Z,0.40
2018-12-10T15:16:47.886Z,0.70
2018-12-10T15:19:15.591Z,0.33
2018-12-10T15:21:43.065Z,0.83
2018-12-10T15:24:11.310Z,0.20
2018-12-10T15:26:38.759Z,0.40
2018-12-10T15:29:06.250Z,0.53
2018-12-10T15:31:33.751Z,0.40
2018-12-10T15:34:01.195Z,0.50
2018-12-10T15:36:28.774Z,0.33
2018-12-10T15:38:56.234Z,0.10
2018-12-10T15:41:23.805Z,0.63
2018-12-10T15:43:51.290Z,0.50
2018-12-10T15:46:18.783Z,0.30
2018-12-10T15:48:46.246Z,0.57
2018-12-10T15:51:13.719Z,0.40
2018-12-10T15:53:41.167Z,0.43
2018-12-10T15:56:08.655Z,0.30
2018-12-10T15:58:36.087Z,0.40
2018-12-10T16:01:03.694Z,0.17
2018-12-10T16:03:31.183Z,0.40
2018-12-10T16:05:58.988Z,0.33
2018-12-10T16:08:26.483Z,0.50
2018-12-10T16:10:53.966Z,0.27
2018-12-10T16:13:21.465Z,0.50
2018-12-10T16:15:48.928Z,0.30
2018-12-10T16:18:16.433Z,0.40
2018-12-10T16:20:43.907Z,0.60
2018-12-10T16:23:11.379Z,0.40
2018-12-10T16:25:39.093Z,1.00
2018-12-10T16:28:06.593Z,0.50
2018-12-10T16:30:34.383Z,0.63
2018-12-10T16:33:02.328Z,0.23
2018-12-10T16:35:30.515Z,0.60
2018-12-10T16:37:58.012Z,0.40
2018-12-10T16:40:25.481Z,0.50
2018-12-10T16:42:52.940Z,0.30
2018-12-10T16:45:20.549Z,0.63
2018-12-10T16:47:48.141Z,0.50
2018-12-10T16:50:15.647Z,0.70
2018-12-10T16:52:43.239Z,0.50
2018-12-10T16:55:10.730Z,0.40
2018-12-10T16:57:38.330Z,0.50
2018-12-10T17:00:09.522Z,0.47
2018-12-10T17:02:37.135Z,0.40
2018-12-10T17:05:06.469Z,0.40
2018-12-10T17:07:34.059Z,0.40
2018-12-10T17:10:01.941Z,0.20
2018-12-10T17:12:29.547Z,0.13
2018-12-10T17:14:57.030Z,0.53
2018-12-10T17:17:24.515Z,0.20
2018-12-10T17:19:52.090Z,0.30
2018-12-10T17:22:19.554Z,0.40
2018-12-10T17:24:47.059Z,0.30
2018-12-10T17:27:15.072Z,0.30
2018-12-10T17:29:42.567Z,0.20
2018-12-10T17:32:10.340Z,0.20
2018-12-10T17:34:37.949Z,0.20
2018-12-10T17:37:05.836Z,0.30
2018-12-10T17:39:33.420Z,0.20
2018-12-10T17:42:01.218Z,0.43
2018-12-10T17:44:28.672Z,0.50
2018-12-10T17:46:56.814Z,0.20
2018-12-10T17:49:24.765Z,0.40
2018-12-10T17:51:52.268Z,0.40
2018-12-10T17:54:20.335Z,0.37
2018-12-10T17:56:47.866Z,0.33
2018-12-10T17:59:15.572Z,0.10
2018-12-10T18:01:43.162Z,0.40
2018-12-10T18:04:10.664Z,0.30
2018-12-10T18:06:38.123Z,0.20
2018-12-10T18:09:06.765Z,0.30
2018-12-10T18:11:34.594Z,0.30
2018-12-10T18:14:02.065Z,0.37
2018-12-10T18:16:29.504Z,0.40
2018-12-10T18:18:57.102Z,0.40
2018-12-10T18:21:24.556Z,0.10
2018-12-10T18:23:52.145Z,0.63
2018-12-10T18:26:19.679Z,0.50
2018-12-10T18:28:47.162Z,0.40
2018-12-10T18:31:14.651Z,0.50
2018-12-10T18:33:42.254Z,0.17
2018-12-10T18:36:09.955Z,0.50
2018-12-10T18:38:37.424Z,0.00
2018-12-10T18:41:04.924Z,0.40
2018-12-10T18:43:32.497Z,0.30
2018-12-10T18:46:00.055Z,0.30
2018-12-10T18:48:27.538Z,0.23
2018-12-10T18:50:54.984Z,0.30
2018-12-10T18:53:22.594Z,0.20
2018-12-10T18:55:50.059Z,0.30
2018-12-10T18:58:17.621Z,0.20
2018-12-10T19:00:45.093Z,0.20
2018-12-10T19:03:12.742Z,0.20
2018-12-10T19:05:40.239Z,0.40
2018-12-10T19:08:07.775Z,0.27
2018-12-10T19:10:35.246Z,0.50
2018-12-10T19:13:02.860Z,0.27
2018-12-10T19:15:30.339Z,0.30
2018-12-10T19:17:57.858Z,0.30
2018-12-10T19:20:25.305Z,0.30
2018-12-10T19:22:52.890Z,0.20
2018-12-10T19:25:20.365Z,0.20
2018-12-10T19:27:47.939Z,0.27
2018-12-10T19:30:15.530Z,0.30
2018-12-10T19:32:43.035Z,0.20
2018-12-10T19:35:10.502Z,0.20
2018-12-10T19:37:38.163Z,0.33
2018-12-10T19:40:06.787Z,0.27
2018-12-10T19:42:34.286Z,0.40
2018-12-10T19:45:01.987Z,0.30
2018-12-10T19:47:29.587Z,0.17
2018-12-10T19:49:57.362Z,0.20
2018-12-10T19:52:24.827Z,0.10
2018-12-10T19:54:52.307Z,0.30
2018-12-10T19:57:19.767Z,0.20
2018-12-10T19:59:47.254Z,0.17
2018-12-10T20:02:15.074Z,0.23
2018-12-10T20:04:42.538Z,0.17
2018-12-10T20:07:10.133Z,0.30
2018-12-10T20:09:37.614Z,0.30
2018-12-10T20:12:05.298Z,0.30
2018-12-10T20:14:32.763Z,0.10
2018-12-10T20:17:00.249Z,0.20
2018-12-10T20:19:27.814Z,0.17
2018-12-10T20:21:55.302Z,0.20
2018-12-10T20:24:22.783Z,0.13
2018-12-10T20:26:50.645Z,0.13
2018-12-10T20:29:18.263Z,0.30
2018-12-10T20:31:46.441Z,0.20
2018-12-10T20:34:13.998Z,0.20
2018-12-10T20:36:41.691Z,0.20
2018-12-10T20:39:09.403Z,0.20
2018-12-10T20:41:36.851Z,0.30
2018-12-10T20:44:04.941Z,0.20
2018-12-10T20:46:32.449Z,0.40
2018-12-10T20:48:59.903Z,0.30
2018-12-10T20:51:27.478Z,0.20
2018-12-10T20:53:54.960Z,0.20
2018-12-10T20:56:22.471Z,0.27
2018-12-10T20:58:49.938Z,0.23
2018-12-10T21:01:17.405Z,0.30
2018-12-10T21:03:44.978Z,0.10
2018-12-10T21:06:17.982Z,0.30
2018-12-10T21:08:45.461Z,0.30
2018-12-10T21:11:12.980Z,0.30
2018-12-10T21:13:40.465Z,0.27
2018-12-10T21:16:08.043Z,0.30
2018-12-10T21:18:35.726Z,0.20
2018-12-10T21:21:03.308Z,0.60
2018-12-10T21:23:30.755Z,0.30
2018-12-10T21:25:58.299Z,0.27
2018-12-10T21:28:25.929Z,0.20
2018-12-10T21:30:53.420Z,0.20
2018-12-10T21:33:20.885Z,0.23
2018-12-10T21:35:48.455Z,0.33
2018-12-10T21:38:15.958Z,0.40
2018-12-10T21:40:43.519Z,0.40
2018-12-10T21:43:10.986Z,0.50
2018-12-10T21:45:38.450Z,0.30
2018-12-10T21:48:05.942Z,0.30
2018-12-10T21:50:33.413Z,0.40
2018-12-10T21:53:01.100Z,0.20
2018-12-10T21:55:28.575Z,0.33
2018-12-10T21:57:56.159Z,0.30
2018-12-10T22:00:23.648Z,0.37
2018-12-10T22:02:51.422Z,0.20
2018-12-10T22:05:18.940Z,0.40
2018-12-10T22:07:46.846Z,0.20
2018-12-10T22:10:14.503Z,0.47
2018-12-10T22:12:42.009Z,0.30
2018-12-10T22:15:09.703Z,0.23
2018-12-10T22:17:37.279Z,0.23
2018-12-10T22:20:05.235Z,0.40
2018-12-10T22:22:32.732Z,0.27
2018-12-10T22:25:00.257Z,0.30
2018-12-10T22:27:27.719Z,0.30
2018-12-10T22:29:55.239Z,0.33
2018-12-10T22:32:22.811Z,0.30
2018-12-10T22:34:50.236Z,0.20
2018-12-10T22:37:17.809Z,0.30
2018-12-10T22:39:45.263Z,0.23
2018-12-10T22:42:12.754Z,0.30
2018-12-10T22:44:40.203Z,0.30
2018-12-10T22:47:07.755Z,0.37
2018-12-10T22:49:35.242Z,0.30
2018-12-10T22:52:03.039Z,0.20
2018-12-10T22:54:30.530Z,0.20
2018-12-10T22:56:58.065Z,0.20
2018-12-10T22:59:25.554Z,0.23
2018-12-10T23:01:53.031Z,0.20
2018-12-10T23:04:20.522Z,0.20
2018-12-10T23:06:48.107Z,0.27
2018-12-10T23:09:15.595Z,0.20
2018-12-10T23:11:43.075Z,0.30
2018-12-10T23:14:10.679Z,0.23
2018-12-10T23:16:38.319Z,0.20
2018-12-10T23:19:05.773Z,0.10
2018-12-10T23:21:33.226Z,0.20
2018-12-10T23:24:00.699Z,0.20
2018-12-10T23:26:28.174Z,0.40
2018-12-10T23:28:55.683Z,0.30
2018-12-10T23:31:23.251Z,0.30
2018-12-10T23:33:50.853Z,0.20
2018-12-10T23:36:18.446Z,0.30
2018-12-10T23:38:45.887Z,0.30
2018-12-10T23:41:13.369Z,0.10
2018-12-10T23:43:40.822Z,0.27
2018-12-10T23:46:08.291Z,0.20
2018-12-10T23:48:35.772Z,0.40
2018-12-10T23:51:03.344Z,0.30
2018-12-10T23:53:30.828Z,0.30
2018-12-10T23:55:58.470Z,0.33
2018-12-10T23:58:25.922Z,0.30
